createdAt,value
2022-07-26T00:01:48.228Z,1.73
2022-07-26T00:04:15.707Z,1.92
2022-07-26T00:06:43.379Z,1.65
2022-07-26T00:09:11.216Z,2.40
2022-07-26T00:11:38.892Z,2.03
2022-07-26T00:14:07.878Z,2.28
2022-07-26T00:25:00.814Z,1.88
2022-07-26T00:27:28.197Z,1.98
2022-07-26T00:29:55.525Z,1.98
2022-07-26T00:32:22.884Z,2.47
2022-07-26T00:34:51.620Z,1.88
2022-07-26T00:37:20.802Z,2.25
2022-07-26T00:39:49.315Z,1.55
2022-07-26T00:42:17.192Z,2.47
2022-07-26T00:44:46.609Z,2.10
2022-07-26T00:47:14.590Z,1.50
2022-07-26T00:49:43.436Z,2.03
2022-07-26T00:52:11.473Z,2.35
2022-07-26T00:54:40.356Z,2.25
2022-07-26T00:57:07.927Z,1.95
2022-07-26T00:59:35.386Z,1.98
2022-07-26T01:02:04.315Z,1.90
2022-07-26T01:04:31.834Z,1.70
2022-07-26T01:06:59.488Z,1.77
2022-07-26T01:09:27.168Z,1.77
2022-07-26T01:11:54.483Z,1.77
2022-07-26T01:14:25.125Z,1.90
2022-07-26T01:16:53.243Z,1.73
2022-07-26T01:19:21.251Z,1.70
2022-07-26T01:21:49.883Z,1.35
2022-07-26T01:24:17.723Z,1.65
2022-07-26T01:26:45.568Z,2.08
2022-07-26T01:29:12.946Z,2.28
2022-07-26T01:31:40.498Z,1.90
2022-07-26T01:34:08.254Z,1.75
2022-07-26T01:36:35.788Z,1.60
2022-07-26T01:39:03.635Z,1.70
2022-07-26T01:41:37.411Z,1.67
2022-07-26T01:44:07.928Z,2.47
2022-07-26T01:46:36.370Z,1.23
2022-07-26T01:49:04.795Z,1.70
2022-07-26T01:51:32.207Z,1.98
2022-07-26T01:54:00.172Z,2.13
2022-07-26T01:56:27.604Z,1.65
2022-07-26T01:58:54.946Z,2.42
2022-07-26T02:01:39.535Z,2.20
2022-07-26T02:06:37.360Z,2.22
2022-07-26T02:09:06.508Z,2.00
2022-07-26T02:11:35.079Z,2.03
2022-07-26T02:14:03.299Z,2.35
2022-07-26T02:16:30.706Z,1.60
2022-07-26T02:18:58.008Z,2.08
2022-07-26T02:21:25.364Z,2.38
2022-07-26T02:23:52.832Z,2.33
2022-07-26T02:26:23.134Z,2.38
2022-07-26T02:28:50.476Z,1.98
2022-07-26T02:31:17.929Z,1.92
2022-07-26T02:33:45.770Z,1.77
2022-07-26T02:36:13.202Z,2.53
2022-07-26T02:38:40.725Z,1.85
2022-07-26T02:41:08.261Z,2.22
2022-07-26T02:43:35.652Z,2.20
2022-07-26T02:46:02.997Z,1.60
2022-07-26T02:48:31.708Z,2.00
2022-07-26T02:50:59.230Z,2.10
2022-07-26T02:53:26.853Z,2.45
2022-07-26T02:55:54.140Z,2.15
2022-07-26T02:58:21.660Z,2.30
2022-07-26T03:00:49.130Z,2.17
2022-07-26T03:03:16.674Z,2.22
2022-07-26T03:05:46.466Z,2.17
2022-07-26T03:08:14.070Z,2.67
2022-07-26T03:10:41.432Z,2.38
2022-07-26T03:13:08.835Z,2.05
2022-07-26T03:15:36.298Z,2.20
2022-07-26T03:18:03.895Z,2.22
2022-07-26T03:20:31.257Z,2.22
2022-07-26T03:22:58.707Z,2.42
2022-07-26T03:25:26.051Z,2.00
2022-07-26T03:27:59.280Z,2.20
2022-07-26T03:30:26.726Z,2.28
2022-07-26T03:32:54.363Z,1.80
2022-07-26T03:35:21.954Z,2.22
2022-07-26T03:37:49.360Z,2.10
2022-07-26T03:40:18.212Z,2.33
2022-07-26T03:42:46.721Z,2.80
2022-07-26T03:45:15.676Z,2.60
2022-07-26T03:47:43.768Z,2.28
2022-07-26T03:50:11.416Z,2.58
2022-07-26T03:52:38.817Z,2.67
2022-07-26T03:55:25.667Z,2.85
2022-07-26T03:57:53.120Z,2.78
2022-07-26T04:00:20.481Z,2.58
2022-07-26T04:02:47.945Z,2.70
2022-07-26T04:05:15.470Z,3.05
2022-07-26T04:07:51.511Z,2.80
2022-07-26T04:10:20.673Z,2.67
2022-07-26T04:12:48.443Z,2.50
2022-07-26T04:15:17.162Z,3.58
2022-07-26T04:17:44.734Z,3.55
2022-07-26T04:20:12.633Z,2.58
2022-07-26T04:22:41.050Z,3.13
2022-07-26T04:25:11.522Z,3.30
2022-07-26T04:27:39.151Z,2.35
2022-07-26T04:30:11.070Z,3.53
2022-07-26T04:32:42.435Z,2.17
2022-07-26T04:35:10.022Z,3.05
2022-07-26T04:37:44.930Z,2.33
2022-07-26T04:40:18.155Z,3.28
2022-07-26T04:42:50.277Z,2.20
2022-07-26T04:45:17.858Z,2.90
2022-07-26T04:47:49.620Z,3.08
2022-07-26T04:50:18.341Z,2.13
2022-07-26T04:52:45.995Z,2.83
2022-07-26T04:55:14.111Z,3.22
2022-07-26T04:57:41.738Z,2.70
2022-07-26T05:00:27.489Z,2.70
2022-07-26T05:02:57.243Z,2.97
2022-07-26T05:05:26.399Z,2.70
2022-07-26T05:07:56.814Z,2.63
2022-07-26T05:10:30.702Z,2.75
2022-07-26T05:12:58.313Z,2.90
2022-07-26T05:15:26.036Z,3.05
2022-07-26T05:18:08.071Z,2.70
2022-07-26T05:20:37.027Z,2.60
2022-07-26T05:23:05.061Z,2.67
2022-07-26T05:25:32.530Z,2.70
2022-07-26T05:28:00.204Z,3.20
2022-07-26T05:30:27.595Z,3.20
2022-07-26T05:32:55.093Z,3.38
2022-07-26T05:35:22.489Z,2.97
2022-07-26T05:37:49.964Z,3.03
2022-07-26T05:40:17.598Z,3.10
2022-07-26T05:42:45.109Z,3.00
2022-07-26T05:45:12.691Z,2.83
2022-07-26T05:47:40.211Z,3.38
2022-07-26T05:50:08.010Z,3.40
2022-07-26T05:52:35.467Z,3.33
2022-07-26T05:55:02.857Z,4.05
2022-07-26T05:57:31.258Z,3.17
2022-07-26T05:59:58.660Z,3.65
2022-07-26T06:02:26.198Z,4.00
2022-07-26T06:04:53.590Z,3.08
2022-07-26T06:07:21.030Z,3.85
2022-07-26T06:09:48.453Z,3.53
2022-07-26T06:12:15.870Z,4.35
2022-07-26T06:14:43.298Z,4.00
2022-07-26T06:17:11.176Z,3.63
2022-07-26T06:19:38.602Z,3.55
2022-07-26T06:22:06.071Z,4.05
2022-07-26T06:24:33.651Z,3.60
2022-07-26T06:27:05.192Z,3.83
2022-07-26T06:29:33.326Z,2.92
2022-07-26T06:32:00.901Z,4.10
2022-07-26T06:34:28.661Z,3.47
2022-07-26T06:36:56.099Z,4.03
2022-07-26T06:39:23.528Z,3.63
2022-07-26T06:41:50.925Z,3.47
2022-07-26T06:44:22.910Z,4.05
2022-07-26T06:46:50.378Z,3.65
2022-07-26T06:49:22.237Z,3.17
2022-07-26T06:51:50.290Z,3.97
2022-07-26T06:54:17.756Z,3.88
2022-07-26T06:56:45.119Z,3.45
2022-07-26T06:59:12.475Z,3.22
2022-07-26T07:01:58.400Z,2.85
2022-07-26T07:04:29.661Z,3.80
2022-07-26T07:07:02.245Z,3.40
2022-07-26T07:09:33.612Z,3.70
2022-07-26T07:12:09.472Z,3.33
2022-07-26T07:14:39.103Z,3.55
2022-07-26T07:17:10.378Z,3.53
2022-07-26T07:19:38.617Z,3.35
2022-07-26T07:22:06.343Z,3.85
2022-07-26T07:24:33.706Z,4.38
2022-07-26T07:27:01.345Z,3.55
2022-07-26T07:29:29.242Z,3.72
2022-07-26T07:31:56.754Z,3.25
2022-07-26T07:34:25.055Z,3.30
2022-07-26T07:36:53.222Z,3.25
2022-07-26T07:39:21.871Z,2.85
2022-07-26T07:41:49.520Z,3.38
2022-07-26T07:44:17.003Z,3.28
2022-07-26T07:46:44.538Z,4.00
2022-07-26T07:49:12.464Z,3.40
2022-07-26T07:51:40.223Z,3.08
2022-07-26T07:54:08.183Z,2.88
2022-07-26T07:56:35.731Z,3.75
2022-07-26T07:59:03.383Z,3.30
2022-07-26T08:01:40.427Z,4.13
2022-07-26T08:04:11.364Z,3.40
2022-07-26T08:06:41.292Z,3.50
2022-07-26T08:09:09.396Z,4.10
2022-07-26T08:11:42.823Z,4.10
2022-07-26T08:14:10.295Z,4.18
2022-07-26T08:16:38.949Z,4.20
2022-07-26T08:19:07.992Z,3.17
2022-07-26T08:21:36.594Z,3.42
2022-07-26T08:24:04.477Z,2.75
2022-07-26T08:26:31.941Z,2.97
2022-07-26T08:29:00.293Z,3.10
2022-07-26T08:31:28.854Z,3.30
2022-07-26T08:33:56.747Z,2.95
2022-07-26T08:36:24.197Z,3.30
2022-07-26T08:38:52.443Z,3.28
2022-07-26T08:41:19.963Z,3.92
2022-07-26T08:43:53.021Z,3.45
2022-07-26T08:46:27.110Z,4.13
2022-07-26T08:48:56.847Z,3.45
2022-07-26T08:51:25.730Z,3.80
2022-07-26T08:54:02.132Z,4.03
2022-07-26T08:56:32.392Z,3.03
2022-07-26T08:59:02.502Z,3.13
2022-07-26T09:01:29.980Z,2.67
2022-07-26T09:03:57.497Z,2.28
2022-07-26T09:06:26.311Z,1.90
2022-07-26T09:09:11.482Z,1.95
2022-07-26T09:11:39.153Z,2.00
2022-07-26T09:14:07.128Z,2.20
2022-07-26T09:16:39.227Z,2.38
2022-07-26T09:19:22.779Z,2.30
2022-07-26T09:21:51.456Z,2.13
2022-07-26T09:24:33.894Z,1.80
2022-07-26T09:27:03.424Z,2.08
2022-07-26T09:29:41.655Z,1.90
2022-07-26T09:32:22.894Z,1.63
2022-07-26T09:34:57.746Z,2.13
2022-07-26T09:37:36.902Z,2.08
2022-07-26T09:40:07.708Z,2.08
2022-07-26T09:42:36.522Z,1.55
2022-07-26T09:45:15.732Z,2.10
2022-07-26T09:47:43.327Z,1.65
2022-07-26T09:50:24.086Z,1.90
2022-07-26T09:53:00.737Z,1.70
2022-07-26T09:55:36.375Z,2.15
2022-07-26T09:58:13.881Z,1.90
2022-07-26T10:00:41.949Z,1.60
2022-07-26T10:03:09.441Z,1.60
2022-07-26T10:05:37.996Z,1.67
2022-07-26T10:08:07.089Z,0.90
2022-07-26T10:10:39.557Z,1.17
2022-07-26T10:13:08.601Z,0.90
2022-07-26T10:15:47.597Z,1.15
2022-07-26T10:18:38.280Z,0.60
2022-07-26T10:21:18.615Z,0.80
2022-07-26T10:23:51.727Z,0.80
2022-07-26T10:26:34.899Z,0.80
2022-07-26T10:29:17.299Z,0.90
2022-07-26T10:31:48.586Z,1.00
2022-07-26T10:34:38.607Z,1.33
2022-07-26T10:37:11.848Z,1.30
2022-07-26T10:39:39.575Z,1.48
2022-07-26T10:42:08.286Z,1.20
2022-07-26T10:44:41.914Z,1.50
2022-07-26T10:47:09.290Z,1.08
2022-07-26T10:49:56.575Z,0.93
2022-07-26T10:52:29.407Z,0.70
2022-07-26T10:54:56.846Z,0.90
2022-07-26T10:57:25.712Z,0.80
2022-07-26T10:59:56.826Z,0.98
2022-07-26T11:02:27.898Z,0.70
2022-07-26T11:05:05.500Z,1.00
2022-07-26T11:07:33.011Z,0.98
2022-07-26T11:10:01.643Z,0.85
2022-07-26T11:12:29.025Z,1.10
2022-07-26T11:14:56.373Z,0.93
2022-07-26T11:17:28.563Z,0.80
2022-07-26T11:19:56.922Z,0.90
2022-07-26T11:22:34.388Z,0.60
2022-07-26T11:25:02.721Z,0.82
2022-07-26T11:27:30.387Z,0.73
2022-07-26T11:30:04.909Z,0.77
2022-07-26T11:32:32.728Z,0.93
2022-07-26T11:35:01.670Z,0.70
2022-07-26T11:37:29.844Z,0.70
2022-07-26T11:39:57.308Z,1.00
2022-07-26T11:42:24.741Z,0.70
2022-07-26T11:44:53.835Z,0.75
2022-07-26T11:47:25.572Z,0.70
2022-07-26T11:50:12.890Z,0.85
2022-07-26T11:52:41.731Z,0.82
2022-07-26T11:55:09.536Z,0.65
2022-07-26T11:57:37.040Z,0.63
2022-07-26T12:00:05.735Z,0.57
2022-07-26T12:02:39.163Z,0.80
2022-07-26T12:05:23.469Z,0.57
2022-07-26T12:07:59.751Z,0.70
2022-07-26T12:10:28.564Z,0.60
2022-07-26T12:13:14.222Z,0.47
2022-07-26T12:15:53.183Z,0.55
2022-07-26T12:18:30.975Z,0.55
2022-07-26T12:21:04.524Z,0.70
2022-07-26T12:23:42.760Z,0.85
2022-07-26T12:26:27.150Z,0.65
2022-07-26T12:28:55.881Z,0.82
2022-07-26T12:31:25.329Z,0.70
2022-07-26T12:33:52.907Z,0.93
2022-07-26T12:36:27.804Z,0.75
2022-07-26T12:38:57.852Z,0.70
2022-07-26T12:41:33.114Z,0.95
2022-07-26T12:44:00.433Z,0.85
2022-07-26T12:46:27.869Z,0.80
2022-07-26T12:48:59.975Z,0.93
2022-07-26T12:51:28.141Z,0.77
2022-07-26T12:53:55.483Z,1.00
2022-07-26T12:56:22.771Z,1.00
2022-07-26T12:58:50.118Z,0.85
2022-07-26T13:01:17.452Z,0.80
2022-07-26T13:03:44.884Z,0.98
2022-07-26T13:06:12.699Z,1.45
2022-07-26T13:08:41.052Z,1.73
2022-07-26T13:11:08.453Z,1.17
2022-07-26T13:13:35.803Z,1.05
2022-07-26T13:16:07.985Z,1.35
2022-07-26T13:18:38.697Z,1.30
2022-07-26T13:21:06.142Z,1.38
2022-07-26T13:23:35.068Z,1.52
2022-07-26T13:26:07.790Z,1.13
2022-07-26T13:28:37.491Z,1.00
2022-07-26T13:31:05.066Z,1.63
2022-07-26T13:33:33.228Z,1.27
2022-07-26T13:36:00.577Z,0.80
2022-07-26T13:38:28.928Z,0.73
2022-07-26T13:40:56.492Z,1.20
2022-07-26T13:43:24.567Z,1.15
2022-07-26T13:45:51.928Z,0.90
2022-07-26T13:48:19.445Z,1.23
2022-07-26T13:50:46.908Z,1.10
2022-07-26T13:53:14.417Z,1.27
2022-07-26T13:55:42.175Z,1.00
2022-07-26T13:58:10.416Z,0.88
2022-07-26T14:00:38.004Z,1.02
2022-07-26T14:03:05.756Z,1.23
2022-07-26T14:05:33.793Z,0.80
2022-07-26T14:08:01.138Z,0.90
2022-07-26T14:10:28.480Z,0.93
2022-07-26T14:12:55.895Z,0.68
2022-07-26T14:15:23.743Z,0.85
2022-07-26T14:17:52.253Z,0.75
2022-07-26T14:20:20.917Z,1.10
2022-07-26T14:22:49.114Z,1.08
2022-07-26T14:25:16.491Z,0.70
2022-07-26T14:27:43.960Z,0.70
2022-07-26T14:30:12.113Z,0.85
2022-07-26T14:32:39.575Z,0.77
2022-07-26T14:35:07.548Z,1.00
2022-07-26T14:37:42.186Z,0.57
2022-07-26T14:40:15.271Z,0.60
2022-07-26T14:42:42.979Z,0.75
2022-07-26T14:45:11.239Z,0.70
2022-07-26T14:47:39.176Z,0.80
2022-07-26T14:50:08.623Z,1.23
2022-07-26T14:52:40.975Z,0.73
2022-07-26T14:55:09.091Z,0.80
2022-07-26T14:57:39.409Z,0.80
2022-07-26T15:00:13.843Z,0.90
2022-07-26T15:02:43.654Z,0.75
2022-07-26T15:05:12.305Z,0.70
2022-07-26T15:07:41.059Z,0.77
2022-07-26T15:10:11.520Z,0.90
2022-07-26T15:12:39.259Z,0.90
2022-07-26T15:15:08.542Z,0.80
2022-07-26T15:17:36.621Z,0.90
2022-07-26T15:20:05.226Z,0.90
2022-07-26T15:22:32.703Z,0.80
2022-07-26T15:25:00.069Z,0.80
2022-07-26T15:27:27.477Z,0.65
2022-07-26T15:29:58.261Z,0.98
2022-07-26T15:32:30.154Z,0.93
2022-07-26T15:34:57.512Z,0.90
2022-07-26T15:37:25.116Z,0.90
2022-07-26T15:39:52.710Z,0.80
2022-07-26T15:42:20.877Z,1.10
2022-07-26T15:44:51.044Z,0.93
2022-07-26T15:47:52.448Z,1.10
2022-07-26T15:50:09.099Z,0.88
2022-07-26T15:52:38.459Z,0.80
2022-07-26T15:55:07.428Z,0.70
2022-07-26T15:57:35.546Z,1.08
2022-07-26T16:00:11.442Z,0.95
2022-07-26T16:02:40.371Z,1.15
2022-07-26T16:05:09.852Z,1.13
2022-07-26T16:07:38.489Z,1.00
2022-07-26T16:10:06.366Z,1.17
2022-07-26T16:12:34.200Z,1.00
2022-07-26T16:15:01.559Z,1.20
2022-07-26T16:17:28.922Z,1.27
2022-07-26T16:19:56.345Z,1.42
2022-07-26T16:22:23.968Z,1.00
2022-07-26T16:24:51.553Z,1.08
2022-07-26T16:27:18.941Z,1.38
2022-07-26T16:29:50.335Z,1.33
2022-07-26T16:32:21.175Z,1.25
2022-07-26T16:34:49.026Z,1.30
2022-07-26T16:37:16.424Z,1.10
2022-07-26T16:39:43.837Z,1.10
2022-07-26T16:42:11.239Z,1.30
2022-07-26T16:44:39.279Z,1.58
2022-07-26T16:47:06.828Z,1.10
2022-07-26T16:49:34.321Z,1.80
2022-07-26T16:52:01.681Z,1.30
2022-07-26T16:54:29.092Z,1.50
2022-07-26T16:56:56.485Z,1.52
2022-07-26T16:59:23.842Z,1.70
2022-07-26T17:01:51.657Z,1.95
2022-07-26T17:04:19.066Z,1.38
2022-07-26T17:07:07.609Z,1.70
2022-07-26T17:09:34.416Z,1.10
2022-07-26T17:12:06.449Z,2.10
2022-07-26T17:14:34.327Z,1.48
2022-07-26T17:17:01.758Z,1.70
2022-07-26T17:19:29.075Z,1.27
2022-07-26T17:21:56.516Z,1.95
2022-07-26T17:24:23.906Z,1.70
2022-07-26T17:26:51.251Z,1.45
2022-07-26T17:29:18.599Z,1.30
2022-07-26T17:31:45.987Z,1.55
2022-07-26T17:34:13.360Z,1.50
2022-07-26T17:36:40.802Z,1.80
2022-07-26T17:39:11.106Z,1.60
2022-07-26T17:41:48.965Z,2.30
2022-07-26T17:44:16.471Z,1.88
2022-07-26T17:46:43.975Z,1.63
2022-07-26T17:49:11.938Z,1.65
2022-07-26T17:51:40.260Z,3.20
2022-07-26T17:54:08.659Z,2.35
2022-07-26T17:56:35.995Z,2.38
2022-07-26T17:59:03.653Z,2.97
2022-07-26T18:01:31.097Z,1.90
2022-07-26T18:03:58.605Z,2.80
2022-07-26T18:06:26.012Z,1.80
2022-07-26T18:08:53.438Z,2.03
2022-07-26T18:11:20.967Z,1.88
2022-07-26T18:13:48.267Z,1.95
2022-07-26T18:16:15.761Z,1.80
2022-07-26T18:18:43.418Z,1.48
2022-07-26T18:21:10.833Z,2.00
2022-07-26T18:23:42.895Z,1.77
2022-07-26T18:26:24.123Z,1.77
2022-07-26T18:28:51.767Z,1.85
2022-07-26T18:31:19.327Z,2.03
2022-07-26T18:33:46.832Z,2.40
2022-07-26T18:36:14.422Z,2.30
2022-07-26T18:38:41.761Z,1.77
2022-07-26T18:41:10.404Z,1.90
2022-07-26T18:43:37.889Z,2.13
2022-07-26T18:46:06.248Z,2.03
2022-07-26T18:48:34.031Z,1.80
2022-07-26T18:51:01.440Z,2.20
2022-07-26T18:53:28.854Z,1.90
2022-07-26T18:55:57.373Z,2.40
2022-07-26T18:58:26.549Z,1.85
2022-07-26T19:00:55.018Z,2.13
2022-07-26T19:03:22.401Z,2.22
2022-07-26T19:05:49.884Z,2.60
2022-07-26T19:08:17.341Z,2.42
2022-07-26T19:10:44.961Z,2.60
2022-07-26T19:13:12.296Z,2.30
2022-07-26T19:15:39.802Z,1.90
2022-07-26T19:18:12.188Z,2.30
2022-07-26T19:20:39.632Z,2.47
2022-07-26T19:23:07.051Z,2.53
2022-07-26T19:25:34.452Z,2.30
2022-07-26T19:28:01.948Z,2.38
2022-07-26T19:30:29.614Z,2.03
2022-07-26T19:32:56.954Z,2.35
2022-07-26T19:35:24.539Z,2.35
2022-07-26T19:37:52.023Z,2.65
2022-07-26T19:40:19.364Z,2.50
2022-07-26T19:42:47.047Z,2.70
2022-07-26T19:45:14.397Z,1.75
2022-07-26T19:47:41.813Z,2.50
2022-07-26T19:50:10.066Z,2.58
2022-07-26T19:52:37.515Z,2.38
2022-07-26T19:55:05.669Z,2.13
2022-07-26T19:57:33.159Z,1.55
2022-07-26T20:00:02.528Z,1.73
2022-07-26T20:02:40.987Z,1.27
2022-07-26T20:05:13.133Z,1.85
2022-07-26T20:07:41.019Z,1.50
2022-07-26T20:10:08.825Z,1.38
2022-07-26T20:12:37.291Z,1.33
2022-07-26T20:15:06.198Z,1.13
2022-07-26T20:17:35.514Z,1.33
2022-07-26T20:20:06.004Z,1.52
2022-07-26T20:22:33.408Z,1.50
2022-07-26T20:25:00.911Z,1.67
2022-07-26T20:27:28.371Z,1.52
2022-07-26T20:30:00.701Z,1.50
2022-07-26T20:32:28.609Z,1.60
2022-07-26T20:34:55.918Z,2.55
2022-07-26T20:37:23.392Z,1.17
2022-07-26T20:39:51.416Z,1.38
2022-07-26T20:42:23.167Z,1.27
2022-07-26T20:44:52.778Z,1.17
2022-07-26T20:47:20.111Z,1.23
2022-07-26T20:49:47.480Z,1.40
2022-07-26T20:52:15.321Z,1.60
2022-07-26T20:54:42.737Z,1.23
2022-07-26T20:57:10.133Z,1.25
2022-07-26T20:59:38.152Z,0.90
2022-07-26T21:02:06.174Z,1.50
2022-07-26T21:04:33.612Z,1.65
2022-07-26T21:07:00.937Z,1.42
2022-07-26T21:09:30.402Z,1.10
2022-07-26T21:11:57.965Z,1.38
2022-07-26T21:14:25.317Z,1.33
2022-07-26T21:16:52.758Z,1.30
2022-07-26T21:19:20.494Z,1.33
2022-07-26T21:21:47.830Z,1.30
2022-07-26T21:24:15.208Z,1.15
2022-07-26T21:26:42.595Z,1.05
2022-07-26T21:29:10.245Z,1.98
2022-07-26T21:31:37.785Z,1.67
2022-07-26T21:34:05.324Z,1.65
2022-07-26T21:36:33.066Z,1.30
2022-07-26T21:39:00.371Z,1.42
2022-07-26T21:41:27.780Z,1.40
2022-07-26T21:43:55.123Z,1.20
2022-07-26T21:46:22.510Z,1.00
2022-07-26T21:48:50.068Z,1.20
2022-07-26T21:51:17.658Z,1.30
2022-07-26T21:53:45.232Z,1.55
2022-07-26T21:56:12.662Z,1.42
2022-07-26T21:58:40.035Z,1.10
2022-07-26T22:01:10.897Z,1.33
2022-07-26T22:03:40.142Z,1.60
2022-07-26T22:06:08.225Z,1.45
2022-07-26T22:08:36.332Z,1.08
2022-07-26T22:11:04.615Z,1.30
2022-07-26T22:13:32.391Z,1.15
2022-07-26T22:15:59.890Z,1.40
2022-07-26T22:18:27.631Z,1.35
2022-07-26T22:20:55.559Z,1.20
2022-07-26T22:23:23.308Z,1.20
2022-07-26T22:25:50.686Z,1.02
2022-07-26T22:28:18.813Z,1.17
2022-07-26T22:30:46.653Z,1.00
2022-07-26T22:33:14.214Z,1.17
2022-07-26T22:35:41.807Z,1.17
2022-07-26T22:38:11.418Z,1.55
2022-07-26T22:40:40.351Z,1.60
2022-07-26T22:43:08.272Z,1.42
2022-07-26T22:45:36.513Z,1.60
2022-07-26T22:48:05.131Z,1.15
2022-07-26T22:50:33.056Z,1.67
2022-07-26T22:53:01.012Z,2.03
2022-07-26T22:55:28.788Z,1.20
2022-07-26T22:57:56.299Z,1.40
2022-07-26T23:00:23.781Z,1.83
2022-07-26T23:02:51.603Z,1.27
2022-07-26T23:05:19.428Z,1.67
2022-07-26T23:07:48.059Z,1.23
2022-07-26T23:10:17.012Z,1.45
2022-07-26T23:12:44.747Z,1.67
2022-07-26T23:15:12.829Z,1.85
2022-07-26T23:17:40.284Z,1.50
2022-07-26T23:20:09.390Z,2.60
2022-07-26T23:22:38.247Z,2.20
2022-07-26T23:25:06.587Z,1.30
2022-07-26T23:27:34.075Z,1.42
2022-07-26T23:30:01.434Z,1.42
2022-07-26T23:32:28.812Z,1.10
2022-07-26T23:34:56.216Z,1.63
2022-07-26T23:37:23.588Z,1.48
2022-07-26T23:39:51.011Z,1.70
2022-07-26T23:42:18.512Z,1.50
2022-07-26T23:44:45.928Z,1.83
2022-07-26T23:47:13.504Z,1.50
2022-07-26T23:49:40.934Z,1.33
2022-07-26T23:52:08.402Z,1.35
2022-07-26T23:54:36.401Z,1.33
2022-07-26T23:57:03.886Z,1.42
2022-07-26T23:59:31.287Z,1.25
